RYR6TE LIBD-LIRP
Flight info
| Callsign | RYR6TE |
|---|---|
| Flight time | 1h 7m |
| Altitude | 38000 |
| Route | TOPNO DCT DOGUS DCT LAKOX DCT KUGIX/N0441F370 Y662 AKUTO L12 MAREL |
| Aircraft | B738/M-SDE3FGILRWY/SB1 |
Departure
| Time | 2026-04-22 16:38 |
|---|---|
| Airport | Bari Karol Wojtyła International Airport (LIBD) |
Arrival
| Time | 2026-04-22 17:46 |
|---|---|
| Airport | Pisa International Airport (LIRP) |
| Time | Latitude | Longitude | Altitude | Speed | Heading |
|---|---|---|---|---|---|
| 2026-04-22 16:18 | 41.13673 | 16.76386 | 135 ft | 0 kts | 21° |
| 2026-04-22 16:34 | 41.13676 | 16.76389 | 135 ft | 1 kts | 39° |
| 2026-04-22 16:34 | 41.13677 | 16.76403 | 135 ft | 2 kts | 98° |
| 2026-04-22 16:34 | 41.13660 | 16.76421 | 135 ft | 5 kts | 146° |
| 2026-04-22 16:34 | 41.13646 | 16.76489 | 135 ft | 13 kts | 71° |
| 2026-04-22 16:35 | 41.13741 | 16.76561 | 135 ft | 20 kts | 352° |
| 2026-04-22 16:35 | 41.13827 | 16.76631 | 133 ft | 19 kts | 69° |
| 2026-04-22 16:35 | 41.13883 | 16.76828 | 124 ft | 26 kts | 71° |
| 2026-04-22 16:35 | 41.13952 | 16.77064 | 121 ft | 29 kts | 69° |
| 2026-04-22 16:36 | 41.14011 | 16.77277 | 122 ft | 15 kts | 69° |
| 2026-04-22 16:36 | 41.14079 | 16.77392 | 118 ft | 18 kts | 23° |
| 2026-04-22 16:36 | 41.14207 | 16.77401 | 114 ft | 15 kts | 342° |
| 2026-04-22 16:36 | 41.14213 | 16.77329 | 112 ft | 0 kts | 248° |
| 2026-04-22 16:37 | 41.14212 | 16.77326 | 112 ft | 0 kts | 248° |
| 2026-04-22 16:37 | 41.14211 | 16.77324 | 113 ft | 0 kts | 248° |
| 2026-04-22 16:37 | 41.14208 | 16.77315 | 115 ft | 7 kts | 248° |
| 2026-04-22 16:37 | 41.14103 | 16.76944 | 124 ft | 79 kts | 250° |
| 2026-04-22 16:38 | 41.13829 | 16.75971 | 137 ft | 142 kts | 251° |
| 2026-04-22 16:38 | 41.13467 | 16.74668 | 707 ft | 151 kts | 250° |
| 2026-04-22 16:38 | 41.13067 | 16.73349 | 1477 ft | 158 kts | 253° |
| 2026-04-22 16:38 | 41.12651 | 16.71948 | 2108 ft | 172 kts | 253° |
| 2026-04-22 16:39 | 41.12152 | 16.70330 | 2350 ft | 204 kts | 254° |
| 2026-04-22 16:39 | 41.11648 | 16.68527 | 2733 ft | 218 kts | 255° |
| 2026-04-22 16:39 | 41.11115 | 16.66542 | 3025 ft | 239 kts | 254° |
| 2026-04-22 16:39 | 41.10525 | 16.64385 | 3446 ft | 257 kts | 253° |
| 2026-04-22 16:40 | 41.09892 | 16.62123 | 4135 ft | 266 kts | 253° |
| 2026-04-22 16:40 | 41.09243 | 16.59832 | 5069 ft | 265 kts | 253° |
| 2026-04-22 16:40 | 41.07963 | 16.55198 | 6742 ft | 268 kts | 259° |
| 2026-04-22 16:41 | 41.07717 | 16.52775 | 7601 ft | 264 kts | 269° |
| 2026-04-22 16:41 | 41.07588 | 16.50350 | 8477 ft | 263 kts | 269° |
| 2026-04-22 16:41 | 41.07460 | 16.47924 | 9344 ft | 264 kts | 269° |
| 2026-04-22 16:41 | 41.07324 | 16.45493 | 10160 ft | 265 kts | 269° |
| 2026-04-22 16:42 | 41.07178 | 16.43010 | 10600 ft | 281 kts | 268° |
| 2026-04-22 16:42 | 41.07014 | 16.40322 | 10775 ft | 304 kts | 268° |
| 2026-04-22 16:42 | 41.06831 | 16.37446 | 11042 ft | 321 kts | 268° |
| 2026-04-22 16:42 | 41.06635 | 16.34509 | 11661 ft | 326 kts | 268° |
| 2026-04-22 16:43 | 41.06426 | 16.31469 | 12465 ft | 327 kts | 268° |
| 2026-04-22 16:43 | 41.06220 | 16.28511 | 13300 ft | 327 kts | 268° |
| 2026-04-22 16:43 | 41.06009 | 16.25506 | 14126 ft | 327 kts | 268° |
| 2026-04-22 16:43 | 41.05797 | 16.22500 | 14893 ft | 329 kts | 268° |
| 2026-04-22 16:44 | 41.05584 | 16.19480 | 15645 ft | 330 kts | 269° |
| 2026-04-22 16:44 | 41.05367 | 16.16410 | 16439 ft | 331 kts | 269° |
| 2026-04-22 16:44 | 41.05154 | 16.13411 | 17160 ft | 333 kts | 269° |
| 2026-04-22 16:44 | 41.04933 | 16.10304 | 17883 ft | 336 kts | 270° |
| 2026-04-22 16:45 | 41.04715 | 16.07258 | 18594 ft | 337 kts | 270° |
| 2026-04-22 16:45 | 41.04492 | 16.04156 | 19273 ft | 339 kts | 270° |
| 2026-04-22 16:45 | 41.04267 | 16.01041 | 19856 ft | 342 kts | 270° |
| 2026-04-22 16:45 | 41.04046 | 15.97990 | 20419 ft | 345 kts | 270° |
| 2026-04-22 16:46 | 41.03816 | 15.94821 | 21023 ft | 346 kts | 270° |
| 2026-04-22 16:46 | 41.03584 | 15.91645 | 21625 ft | 347 kts | 269° |
| 2026-04-22 16:46 | 41.03349 | 15.88450 | 22190 ft | 350 kts | 269° |
| 2026-04-22 16:46 | 41.03111 | 15.85226 | 22745 ft | 353 kts | 269° |
| 2026-04-22 16:47 | 41.02872 | 15.81978 | 23295 ft | 355 kts | 269° |
| 2026-04-22 16:47 | 41.02630 | 15.78716 | 23820 ft | 357 kts | 269° |
| 2026-04-22 16:47 | 41.02468 | 15.76542 | 24117 ft | 359 kts | 269° |
| 2026-04-22 16:47 | 41.02659 | 15.72175 | 24671 ft | 356 kts | 285° |
| 2026-04-22 16:48 | 41.03423 | 15.69058 | 25114 ft | 357 kts | 292° |
| 2026-04-22 16:48 | 41.04569 | 15.66140 | 25530 ft | 360 kts | 303° |
| 2026-04-22 16:48 | 41.06142 | 15.63537 | 25927 ft | 363 kts | 307° |
| 2026-04-22 16:48 | 41.07769 | 15.60971 | 26297 ft | 367 kts | 307° |
| 2026-04-22 16:49 | 41.09421 | 15.58384 | 26677 ft | 369 kts | 307° |
| 2026-04-22 16:49 | 41.10521 | 15.56658 | 26929 ft | 371 kts | 307° |
| 2026-04-22 16:49 | 41.12187 | 15.54037 | 27304 ft | 373 kts | 307° |
| 2026-04-22 16:49 | 41.13858 | 15.51395 | 27651 ft | 375 kts | 307° |
| 2026-04-22 16:50 | 41.15531 | 15.48741 | 28203 ft | 374 kts | 307° |
| 2026-04-22 16:50 | 41.17192 | 15.46097 | 28668 ft | 373 kts | 307° |
| 2026-04-22 16:50 | 41.18857 | 15.43439 | 29002 ft | 376 kts | 307° |
| 2026-04-22 16:50 | 41.20529 | 15.40764 | 29301 ft | 378 kts | 307° |
| 2026-04-22 16:51 | 41.22213 | 15.38066 | 29648 ft | 380 kts | 307° |
| 2026-04-22 16:51 | 41.23897 | 15.35366 | 30100 ft | 379 kts | 307° |
| 2026-04-22 16:51 | 41.25572 | 15.32679 | 30549 ft | 376 kts | 307° |
| 2026-04-22 16:51 | 41.27235 | 15.30009 | 30978 ft | 374 kts | 307° |
| 2026-04-22 16:52 | 41.28892 | 15.27346 | 31319 ft | 374 kts | 307° |
| 2026-04-22 16:52 | 41.30551 | 15.24675 | 31614 ft | 375 kts | 307° |
| 2026-04-22 16:52 | 41.32215 | 15.21995 | 31931 ft | 375 kts | 307° |
| 2026-04-22 16:52 | 41.33875 | 15.19319 | 32322 ft | 374 kts | 308° |
| 2026-04-22 16:53 | 41.35526 | 15.16656 | 32695 ft | 372 kts | 308° |
| 2026-04-22 16:53 | 41.37167 | 15.14004 | 33071 ft | 371 kts | 308° |
| 2026-04-22 16:53 | 41.38809 | 15.11351 | 33396 ft | 372 kts | 308° |
| 2026-04-22 16:53 | 41.40447 | 15.08701 | 33832 ft | 369 kts | 308° |
| 2026-04-22 16:54 | 41.42065 | 15.06081 | 34425 ft | 362 kts | 308° |
| 2026-04-22 16:54 | 41.43657 | 15.03501 | 34807 ft | 360 kts | 308° |
| 2026-04-22 16:54 | 41.45250 | 15.00917 | 34988 ft | 362 kts | 308° |
| 2026-04-22 16:54 | 41.46805 | 14.98390 | 35106 ft | 366 kts | 308° |
| 2026-04-22 16:55 | 41.48435 | 14.95741 | 35130 ft | 372 kts | 308° |
| 2026-04-22 16:55 | 41.51747 | 14.90351 | 35245 ft | 380 kts | 308° |
| 2026-04-22 16:55 | 41.53428 | 14.87610 | 35399 ft | 382 kts | 308° |
| 2026-04-22 16:56 | 41.55111 | 14.84867 | 35638 ft | 382 kts | 307° |
| 2026-04-22 16:56 | 41.56793 | 14.82123 | 35884 ft | 382 kts | 307° |
| 2026-04-22 16:56 | 41.58477 | 14.79373 | 36043 ft | 384 kts | 307° |
| 2026-04-22 16:56 | 41.60167 | 14.76610 | 36229 ft | 384 kts | 307° |
| 2026-04-22 16:57 | 41.61858 | 14.73843 | 36431 ft | 384 kts | 307° |
| 2026-04-22 16:57 | 41.63545 | 14.71079 | 36677 ft | 384 kts | 307° |
| 2026-04-22 16:57 | 41.65236 | 14.68307 | 36861 ft | 385 kts | 307° |
| 2026-04-22 16:57 | 41.66928 | 14.65529 | 37058 ft | 386 kts | 307° |
| 2026-04-22 16:58 | 41.68618 | 14.62754 | 37412 ft | 383 kts | 307° |
| 2026-04-22 16:58 | 41.70293 | 14.60002 | 37679 ft | 381 kts | 307° |
| 2026-04-22 16:58 | 41.71952 | 14.57270 | 37766 ft | 385 kts | 306° |
| 2026-04-22 16:58 | 41.73642 | 14.54485 | 37923 ft | 385 kts | 306° |
| 2026-04-22 16:59 | 41.75330 | 14.51703 | 38102 ft | 385 kts | 306° |
| 2026-04-22 16:59 | 41.78728 | 14.46093 | 38097 ft | 388 kts | 306° |
| 2026-04-22 17:00 | 41.82111 | 14.40499 | 38108 ft | 384 kts | 307° |
| 2026-04-22 17:00 | 41.87126 | 14.32185 | 38107 ft | 380 kts | 306° |
| 2026-04-22 17:01 | 41.90447 | 14.26668 | 38113 ft | 380 kts | 306° |
| 2026-04-22 17:01 | 41.93757 | 14.21156 | 38072 ft | 379 kts | 306° |
| 2026-04-22 17:02 | 41.97088 | 14.15597 | 38114 ft | 386 kts | 306° |
| 2026-04-22 17:02 | 42.00468 | 14.09947 | 38106 ft | 390 kts | 306° |
| 2026-04-22 17:03 | 42.03873 | 14.04248 | 38114 ft | 392 kts | 306° |
| 2026-04-22 17:03 | 42.07234 | 13.98609 | 38115 ft | 392 kts | 306° |
| 2026-04-22 17:04 | 42.10651 | 13.92870 | 38133 ft | 393 kts | 306° |
| 2026-04-22 17:04 | 42.14066 | 13.87124 | 38120 ft | 392 kts | 306° |
| 2026-04-22 17:05 | 42.17472 | 13.81378 | 38109 ft | 392 kts | 306° |
| 2026-04-22 17:05 | 42.20852 | 13.75668 | 38140 ft | 388 kts | 306° |
| 2026-04-22 17:06 | 42.24221 | 13.69963 | 38122 ft | 389 kts | 306° |
| 2026-04-22 17:06 | 42.27590 | 13.64246 | 38120 ft | 389 kts | 306° |
| 2026-04-22 17:07 | 42.30953 | 13.58528 | 38132 ft | 389 kts | 306° |
| 2026-04-22 17:07 | 42.34318 | 13.52798 | 38121 ft | 388 kts | 306° |
| 2026-04-22 17:08 | 42.37604 | 13.47194 | 38107 ft | 379 kts | 306° |
| 2026-04-22 17:08 | 42.40869 | 13.41612 | 38119 ft | 377 kts | 306° |
| 2026-04-22 17:09 | 42.44117 | 13.36048 | 38118 ft | 377 kts | 306° |
| 2026-04-22 17:09 | 42.47366 | 13.30471 | 38114 ft | 377 kts | 306° |
| 2026-04-22 17:10 | 42.50617 | 13.24882 | 38116 ft | 378 kts | 306° |
| 2026-04-22 17:10 | 42.53872 | 13.19277 | 38106 ft | 379 kts | 306° |
| 2026-04-22 17:11 | 42.57130 | 13.13655 | 38099 ft | 380 kts | 306° |
| 2026-04-22 17:11 | 42.60393 | 13.08013 | 38079 ft | 381 kts | 306° |
| 2026-04-22 17:12 | 42.63671 | 13.02334 | 38084 ft | 383 kts | 307° |
| 2026-04-22 17:12 | 42.66908 | 12.96717 | 38089 ft | 384 kts | 306° |
| 2026-04-22 17:13 | 42.70202 | 12.90990 | 38103 ft | 385 kts | 307° |
| 2026-04-22 17:13 | 42.73498 | 12.85250 | 38096 ft | 386 kts | 307° |
| 2026-04-22 17:14 | 42.76807 | 12.79475 | 38096 ft | 387 kts | 307° |
| 2026-04-22 17:14 | 42.80095 | 12.73723 | 38100 ft | 387 kts | 307° |
| 2026-04-22 17:15 | 42.83345 | 12.67877 | 38089 ft | 386 kts | 301° |
| 2026-04-22 17:15 | 42.84566 | 12.64683 | 37932 ft | 373 kts | 293° |
| 2026-04-22 17:15 | 42.85395 | 12.61378 | 37403 ft | 365 kts | 289° |
| 2026-04-22 17:16 | 42.86127 | 12.58085 | 36755 ft | 361 kts | 289° |
| 2026-04-22 17:16 | 42.86851 | 12.54838 | 36178 ft | 355 kts | 289° |
| 2026-04-22 17:16 | 42.87562 | 12.51656 | 35699 ft | 347 kts | 289° |
| 2026-04-22 17:16 | 42.88263 | 12.48539 | 35203 ft | 340 kts | 289° |
| 2026-04-22 17:17 | 42.88951 | 12.45489 | 34727 ft | 333 kts | 290° |
| 2026-04-22 17:17 | 42.89626 | 12.42496 | 34249 ft | 327 kts | 290° |
| 2026-04-22 17:17 | 42.90289 | 12.39561 | 33657 ft | 322 kts | 290° |
| 2026-04-22 17:17 | 42.90951 | 12.36638 | 32869 ft | 322 kts | 289° |
| 2026-04-22 17:18 | 42.91609 | 12.33726 | 32221 ft | 319 kts | 289° |
| 2026-04-22 17:18 | 42.92256 | 12.30856 | 31687 ft | 314 kts | 289° |
| 2026-04-22 17:18 | 42.92894 | 12.28023 | 31123 ft | 310 kts | 289° |
| 2026-04-22 17:18 | 42.93524 | 12.25223 | 30642 ft | 307 kts | 288° |
| 2026-04-22 17:19 | 42.94770 | 12.19677 | 29865 ft | 303 kts | 288° |
| 2026-04-22 17:19 | 42.95987 | 12.14239 | 29167 ft | 295 kts | 288° |
| 2026-04-22 17:20 | 42.97171 | 12.08936 | 28476 ft | 289 kts | 288° |
| 2026-04-22 17:20 | 42.98326 | 12.03754 | 27769 ft | 282 kts | 289° |
| 2026-04-22 17:21 | 42.98894 | 12.01202 | 27483 ft | 279 kts | 289° |
| 2026-04-22 17:21 | 42.99993 | 11.96249 | 26847 ft | 274 kts | 289° |
| 2026-04-22 17:22 | 43.01082 | 11.91337 | 26268 ft | 271 kts | 289° |
| 2026-04-22 17:22 | 43.01624 | 11.88883 | 25952 ft | 270 kts | 289° |
| 2026-04-22 17:22 | 43.02732 | 11.83874 | 25346 ft | 282 kts | 289° |
| 2026-04-22 17:23 | 43.03299 | 11.81305 | 25016 ft | 282 kts | 289° |
| 2026-04-22 17:23 | 43.04417 | 11.76220 | 24389 ft | 277 kts | 289° |
| 2026-04-22 17:23 | 43.04967 | 11.73710 | 24085 ft | 275 kts | 289° |
| 2026-04-22 17:24 | 43.05514 | 11.71217 | 23786 ft | 272 kts | 289° |
| 2026-04-22 17:24 | 43.06056 | 11.68742 | 23433 ft | 271 kts | 289° |
| 2026-04-22 17:24 | 43.06592 | 11.66288 | 23090 ft | 268 kts | 289° |
| 2026-04-22 17:24 | 43.07122 | 11.63864 | 22803 ft | 265 kts | 290° |
| 2026-04-22 17:25 | 43.07645 | 11.61465 | 22503 ft | 262 kts | 290° |
| 2026-04-22 17:25 | 43.08162 | 11.59093 | 22216 ft | 259 kts | 290° |
| 2026-04-22 17:25 | 43.08674 | 11.56743 | 21951 ft | 256 kts | 290° |
| 2026-04-22 17:25 | 43.09183 | 11.54407 | 21634 ft | 257 kts | 290° |
| 2026-04-22 17:26 | 43.09693 | 11.52065 | 21350 ft | 257 kts | 290° |
| 2026-04-22 17:26 | 43.10207 | 11.49700 | 21077 ft | 262 kts | 290° |
| 2026-04-22 17:26 | 43.10740 | 11.47254 | 20786 ft | 273 kts | 290° |
| 2026-04-22 17:26 | 43.11283 | 11.44750 | 20467 ft | 275 kts | 290° |
| 2026-04-22 17:27 | 43.11641 | 11.43093 | 20267 ft | 273 kts | 290° |
| 2026-04-22 17:27 | 43.12356 | 11.39780 | 19861 ft | 270 kts | 290° |
| 2026-04-22 17:27 | 43.12885 | 11.37330 | 19586 ft | 267 kts | 290° |
| 2026-04-22 17:27 | 43.13407 | 11.34904 | 19302 ft | 264 kts | 290° |
| 2026-04-22 17:28 | 43.13921 | 11.32510 | 19022 ft | 261 kts | 290° |
| 2026-04-22 17:28 | 43.14432 | 11.30132 | 18728 ft | 260 kts | 290° |
| 2026-04-22 17:28 | 43.14940 | 11.27768 | 18442 ft | 258 kts | 290° |
| 2026-04-22 17:28 | 43.15444 | 11.25420 | 18175 ft | 255 kts | 290° |
| 2026-04-22 17:29 | 43.15940 | 11.23100 | 17875 ft | 253 kts | 291° |
| 2026-04-22 17:29 | 43.16434 | 11.20796 | 17594 ft | 253 kts | 291° |
| 2026-04-22 17:29 | 43.16928 | 11.18488 | 17349 ft | 253 kts | 291° |
| 2026-04-22 17:29 | 43.17429 | 11.16150 | 17083 ft | 259 kts | 291° |
| 2026-04-22 17:30 | 43.17950 | 11.13728 | 16793 ft | 270 kts | 290° |
| 2026-04-22 17:30 | 43.18482 | 11.11239 | 16490 ft | 273 kts | 290° |
| 2026-04-22 17:30 | 43.19010 | 11.08753 | 16204 ft | 270 kts | 290° |
| 2026-04-22 17:30 | 43.19525 | 11.06326 | 15928 ft | 268 kts | 290° |
| 2026-04-22 17:31 | 43.20043 | 11.03882 | 15633 ft | 266 kts | 290° |
| 2026-04-22 17:31 | 43.20556 | 11.01458 | 15365 ft | 264 kts | 291° |
| 2026-04-22 17:31 | 43.21052 | 10.99123 | 15078 ft | 263 kts | 291° |
| 2026-04-22 17:31 | 43.21561 | 10.96718 | 14817 ft | 262 kts | 290° |
| 2026-04-22 17:32 | 43.22066 | 10.94327 | 14541 ft | 261 kts | 290° |
| 2026-04-22 17:32 | 43.22570 | 10.91942 | 14271 ft | 260 kts | 290° |
| 2026-04-22 17:32 | 43.23072 | 10.89562 | 13997 ft | 259 kts | 291° |
| 2026-04-22 17:32 | 43.23571 | 10.87196 | 13700 ft | 258 kts | 290° |
| 2026-04-22 17:33 | 43.23901 | 10.85629 | 13500 ft | 258 kts | 290° |
| 2026-04-22 17:33 | 43.24562 | 10.82487 | 13130 ft | 255 kts | 290° |
| 2026-04-22 17:33 | 43.25054 | 10.80144 | 12854 ft | 257 kts | 290° |
| 2026-04-22 17:33 | 43.25552 | 10.77774 | 12586 ft | 261 kts | 290° |
| 2026-04-22 17:34 | 43.26061 | 10.75352 | 12308 ft | 268 kts | 290° |
| 2026-04-22 17:34 | 43.26582 | 10.72864 | 12027 ft | 274 kts | 290° |
| 2026-04-22 17:34 | 43.27107 | 10.70353 | 11708 ft | 274 kts | 290° |
| 2026-04-22 17:34 | 43.27630 | 10.67845 | 11412 ft | 273 kts | 290° |
| 2026-04-22 17:35 | 43.28159 | 10.65348 | 11111 ft | 272 kts | 292° |
| 2026-04-22 17:35 | 43.28934 | 10.63002 | 10774 ft | 270 kts | 302° |
| 2026-04-22 17:35 | 43.29877 | 10.60775 | 10443 ft | 270 kts | 304° |
| 2026-04-22 17:35 | 43.30848 | 10.58561 | 10103 ft | 271 kts | 304° |
| 2026-04-22 17:36 | 43.31822 | 10.56331 | 9725 ft | 273 kts | 304° |
| 2026-04-22 17:36 | 43.32789 | 10.54092 | 9374 ft | 273 kts | 303° |
| 2026-04-22 17:36 | 43.33750 | 10.51845 | 9007 ft | 272 kts | 303° |
| 2026-04-22 17:36 | 43.34695 | 10.49637 | 8649 ft | 264 kts | 306° |
| 2026-04-22 17:37 | 43.35771 | 10.47666 | 8386 ft | 253 kts | 313° |
| 2026-04-22 17:37 | 43.36855 | 10.45856 | 8264 ft | 238 kts | 317° |
| 2026-04-22 17:37 | 43.37647 | 10.44856 | 8123 ft | 230 kts | 323° |
| 2026-04-22 17:37 | 43.38872 | 10.43502 | 7952 ft | 219 kts | 326° |
| 2026-04-22 17:38 | 43.40031 | 10.42227 | 7744 ft | 210 kts | 325° |
| 2026-04-22 17:38 | 43.41162 | 10.40959 | 7312 ft | 212 kts | 323° |
| 2026-04-22 17:38 | 43.42308 | 10.39650 | 6802 ft | 217 kts | 323° |
| 2026-04-22 17:38 | 43.43471 | 10.38300 | 6248 ft | 221 kts | 323° |
| 2026-04-22 17:39 | 43.44652 | 10.36912 | 5656 ft | 225 kts | 324° |
| 2026-04-22 17:39 | 43.45844 | 10.35498 | 5078 ft | 226 kts | 324° |
| 2026-04-22 17:39 | 43.48179 | 10.32701 | 3896 ft | 220 kts | 325° |
| 2026-04-22 17:40 | 43.49324 | 10.31326 | 3357 ft | 216 kts | 325° |
| 2026-04-22 17:40 | 43.50439 | 10.29981 | 2834 ft | 210 kts | 325° |
| 2026-04-22 17:40 | 43.51510 | 10.28685 | 2556 ft | 200 kts | 326° |
| 2026-04-22 17:40 | 43.52577 | 10.27401 | 2542 ft | 205 kts | 326° |
| 2026-04-22 17:41 | 43.53679 | 10.26185 | 2498 ft | 198 kts | 339° |
| 2026-04-22 17:41 | 43.54927 | 10.25990 | 2501 ft | 176 kts | 26° |
| 2026-04-22 17:41 | 43.55956 | 10.26839 | 2519 ft | 173 kts | 35° |
| 2026-04-22 17:41 | 43.56951 | 10.27672 | 2472 ft | 161 kts | 37° |
| 2026-04-22 17:42 | 43.57832 | 10.28517 | 2344 ft | 150 kts | 40° |
| 2026-04-22 17:42 | 43.58638 | 10.29339 | 2167 ft | 142 kts | 41° |
| 2026-04-22 17:42 | 43.59405 | 10.30130 | 1988 ft | 133 kts | 42° |
| 2026-04-22 17:42 | 43.60137 | 10.30885 | 1786 ft | 129 kts | 43° |
| 2026-04-22 17:43 | 43.60864 | 10.31634 | 1688 ft | 132 kts | 41° |
| 2026-04-22 17:43 | 43.61583 | 10.32386 | 1431 ft | 126 kts | 44° |
| 2026-04-22 17:43 | 43.62266 | 10.33128 | 1278 ft | 125 kts | 44° |
| 2026-04-22 17:43 | 43.62951 | 10.33843 | 1109 ft | 122 kts | 42° |
| 2026-04-22 17:44 | 43.63661 | 10.34563 | 954 ft | 131 kts | 42° |
| 2026-04-22 17:44 | 43.64417 | 10.35333 | 787 ft | 138 kts | 41° |
| 2026-04-22 17:44 | 43.65175 | 10.36099 | 592 ft | 132 kts | 43° |
| 2026-04-22 17:44 | 43.65913 | 10.36897 | 405 ft | 136 kts | 39° |
| 2026-04-22 17:45 | 43.66668 | 10.37650 | 268 ft | 132 kts | 39° |
| 2026-04-22 17:45 | 43.67393 | 10.38393 | 51 ft | 126 kts | 42° |
| 2026-04-22 17:45 | 43.68036 | 10.39073 | 15 ft | 93 kts | 37° |
| 2026-04-22 17:45 | 43.68424 | 10.39470 | 20 ft | 58 kts | 37° |
| 2026-04-22 17:46 | 43.68728 | 10.39785 | 16 ft | 50 kts | 37° |
| 2026-04-22 17:46 | 43.68987 | 10.40056 | 18 ft | 44 kts | 37° |
| 2026-04-22 17:46 | 43.69199 | 10.40273 | 21 ft | 32 kts | 37° |
| 2026-04-22 17:46 | 43.69312 | 10.40231 | 17 ft | 21 kts | 307° |
| 2026-04-22 17:47 | 43.69405 | 10.40104 | 21 ft | 19 kts | 350° |
| 2026-04-22 17:47 | 43.69546 | 10.40076 | 15 ft | 21 kts | 353° |
| 2026-04-22 17:47 | 43.69667 | 10.40041 | 14 ft | 13 kts | 332° |
| 2026-04-22 17:47 | 43.69742 | 10.40031 | 14 ft | 9 kts | 11° |
| 2026-04-22 17:48 | 43.69748 | 10.40032 | 14 ft | 0 kts | 10° |